createdAt,value
2022-11-04T00:03:12.523Z,73.9
2022-11-04T00:18:22.094Z,73.9
2022-11-04T00:33:31.596Z,70.6
2022-11-04T00:48:42.280Z,68.8
2022-11-04T01:03:51.795Z,72.2
2022-11-04T01:19:01.017Z,73.3
2022-11-04T01:34:10.477Z,73.6
2022-11-04T01:49:19.923Z,73.7
2022-11-04T02:04:29.163Z,73.8
2022-11-04T02:19:38.819Z,72.1
2022-11-04T02:34:48.932Z,71.4
2022-11-04T02:49:58.834Z,72
2022-11-04T03:05:07.971Z,72.9
2022-11-04T03:20:16.684Z,74.8
2022-11-04T03:35:26.063Z,75.6
2022-11-04T03:50:35.729Z,75.9
2022-11-04T04:05:45.416Z,76
2022-11-04T04:20:54.171Z,76.1
2022-11-04T04:36:03.156Z,76.1
2022-11-04T04:51:13.057Z,76.1
2022-11-04T05:06:22.666Z,76.1
2022-11-04T05:21:32.364Z,76.3
2022-11-04T05:36:42.907Z,76.6
2022-11-04T05:51:52.771Z,76.4
2022-11-04T06:07:02.116Z,76.4
2022-11-04T06:22:11.840Z,76.5
2022-11-04T06:37:21.167Z,76.4
2022-11-04T06:52:30.969Z,76.2
2022-11-04T07:07:41.204Z,76.1
2022-11-04T07:22:51.673Z,75.9
2022-11-04T07:38:01.921Z,76.3
2022-11-04T07:53:13.126Z,75.7
2022-11-04T08:08:22.702Z,75.6
2022-11-04T08:23:32.074Z,75.6
2022-11-04T08:38:44.207Z,75.5
2022-11-04T08:53:53.889Z,75.5
2022-11-04T09:09:03.672Z,75.2
2022-11-04T09:24:13.953Z,75.2
2022-11-04T09:39:23.832Z,75.3
2022-11-04T09:54:34.072Z,75.1
2022-11-04T10:09:47.535Z,75
2022-11-04T10:24:58.400Z,74.8
2022-11-04T10:40:08.934Z,74.7
2022-11-04T10:55:20.982Z,75
2022-11-04T11:10:31.307Z,74.6
2022-11-04T11:25:40.869Z,74.3
2022-11-04T11:41:26.557Z,73.9
2022-11-04T11:57:20.947Z,73.1
2022-11-04T12:12:34.486Z,72.6
2022-11-04T12:27:44.439Z,73.2
2022-11-04T12:42:53.925Z,73.2
2022-11-04T12:58:03.692Z,73.1
2022-11-04T13:13:13.658Z,72.6
2022-11-04T13:28:23.738Z,72.7
2022-11-04T13:43:33.330Z,73.4
2022-11-04T13:58:47.551Z,73.3
2022-11-04T14:13:57.042Z,73.5
2022-11-04T14:29:06.300Z,73.6
2022-11-04T14:44:15.748Z,73.8
2022-11-04T14:59:25.571Z,73.9
2022-11-04T15:14:35.164Z,74
2022-11-04T15:29:45.067Z,74.3
2022-11-04T15:44:54.810Z,74.3
2022-11-04T16:00:04.594Z,74.6
2022-11-04T16:15:18.092Z,73.9
2022-11-04T16:30:28.472Z,72.4
2022-11-04T16:45:41.336Z,74.1
2022-11-04T17:00:51.572Z,74.9
2022-11-04T17:16:01.903Z,75.3
2022-11-04T17:31:11.418Z,75
2022-11-04T17:46:21.086Z,74.6
2022-11-04T18:01:31.237Z,74.6
2022-11-04T18:16:42.167Z,74.7
2022-11-04T18:31:51.558Z,74.7
2022-11-04T18:47:01.543Z,74.7
2022-11-04T19:02:13.214Z,74.4
2022-11-04T19:17:23.271Z,73.8
2022-11-04T19:32:32.369Z,74.9
2022-11-04T19:47:41.652Z,75.6
2022-11-04T20:02:51.708Z,75.7
2022-11-04T20:18:02.148Z,75.8
2022-11-04T20:33:12.379Z,76
2022-11-04T20:48:22.205Z,76
2022-11-04T21:03:31.153Z,76.2
2022-11-04T21:18:40.353Z,76.4
2022-11-04T21:33:50.081Z,76.5
2022-11-04T21:48:59.425Z,76.1
2022-11-04T22:04:09.299Z,75.8
2022-11-04T22:19:18.865Z,75.8
2022-11-04T22:34:28.648Z,75
2022-11-04T22:49:38.636Z,74.4
2022-11-04T23:04:49.273Z,75.6
2022-11-04T23:19:58.934Z,76.1
2022-11-04T23:35:09.110Z,74.7
2022-11-04T23:50:18.843Z,72.1
